Terminal Aerodrome Forecast
Issued by NWS

Home | Current Version | Previous Version | Text Only | Print | Product List | Glossary On
Versions: 1 2 3 4 5 6 7 8 9 10 11 12 13 14 15 16 17 18 19 20 21 22
000
FTUS45 KABQ 210500
TAFGUP
TAF
KGUP 210529Z 2106/2206 VRB04KT P6SM SCT080 SCT120
      TEMPO 2106/2110 BKN080
     FM212000 25010KT P6SM FEW030 SCT200
     FM220100 23005KT P6SM FEW030 SCT200=

USA.gov is the U.S. government's official web portal to all federal, state and local government web resources and services.